createdAt,value
2023-12-18T00:00:02.776Z,3.68
2023-12-18T00:03:05.756Z,3.63
2023-12-18T00:06:07.621Z,3.61
2023-12-18T00:09:09.344Z,3.62
2023-12-18T00:12:11.847Z,3.63
2023-12-18T00:15:13.821Z,3.61
2023-12-18T00:18:15.602Z,3.60
2023-12-18T00:21:17.521Z,3.61
2023-12-18T00:24:19.353Z,3.59
2023-12-18T00:27:21.076Z,3.59
2023-12-18T00:30:22.909Z,3.61
2023-12-18T00:33:24.871Z,3.60
2023-12-18T00:36:26.676Z,3.64
2023-12-18T00:39:28.660Z,3.67
2023-12-18T00:42:30.350Z,3.67
2023-12-18T00:45:31.996Z,3.69
2023-12-18T00:48:33.796Z,3.71
2023-12-18T00:51:35.581Z,3.78
2023-12-18T00:54:37.427Z,3.82
2023-12-18T00:57:39.296Z,3.85
2023-12-18T01:00:41.059Z,3.87
2023-12-18T01:03:43.109Z,3.90
2023-12-18T01:06:45.472Z,3.92
2023-12-18T01:09:47.277Z,3.87
2023-12-18T01:12:48.806Z,3.85
2023-12-18T01:15:50.687Z,3.77
2023-12-18T01:18:52.416Z,3.69
2023-12-18T01:21:54.222Z,3.64
2023-12-18T01:24:55.874Z,3.62
2023-12-18T01:27:57.576Z,3.59
2023-12-18T01:30:59.429Z,3.55
2023-12-18T01:34:01.498Z,3.52
2023-12-18T01:37:03.344Z,3.48
2023-12-18T01:40:05.507Z,3.43
2023-12-18T01:43:26.582Z,3.40
2023-12-18T01:46:28.414Z,3.35
2023-12-18T01:49:29.998Z,3.29
2023-12-18T01:52:32.166Z,3.28
2023-12-18T01:55:33.766Z,3.24
2023-12-18T01:58:35.337Z,3.18
2023-12-18T02:01:37.741Z,3.14
2023-12-18T02:04:39.465Z,3.17
2023-12-18T02:07:41.555Z,3.20
2023-12-18T02:10:43.802Z,3.25
2023-12-18T02:13:45.488Z,3.28
2023-12-18T02:16:47.048Z,3.27
2023-12-18T02:19:48.686Z,3.29
2023-12-18T02:22:50.549Z,3.30
2023-12-18T02:25:52.086Z,3.32
2023-12-18T02:28:53.796Z,3.37
2023-12-18T02:31:55.337Z,3.41
2023-12-18T02:34:57.120Z,3.45
2023-12-18T02:37:58.870Z,3.51
2023-12-18T02:41:00.996Z,3.54
2023-12-18T02:44:02.662Z,3.51
2023-12-18T02:47:04.335Z,3.49
2023-12-18T02:50:06.176Z,3.48
2023-12-18T02:53:07.830Z,3.43
2023-12-18T02:56:09.437Z,3.36
2023-12-18T02:59:11.075Z,3.32
2023-12-18T03:02:13.421Z,3.28
2023-12-18T03:05:15.403Z,3.26
2023-12-18T03:08:17.122Z,3.26
2023-12-18T03:11:18.927Z,3.31
2023-12-18T03:14:20.645Z,3.33
2023-12-18T03:17:22.551Z,3.33
2023-12-18T03:20:24.623Z,3.31
2023-12-18T03:23:26.433Z,3.35
2023-12-18T03:26:28.147Z,3.37
2023-12-18T03:29:29.697Z,3.43
2023-12-18T03:32:31.599Z,3.39
2023-12-18T03:35:33.320Z,3.38
2023-12-18T03:38:34.881Z,3.42
2023-12-18T03:41:36.651Z,3.39
2023-12-18T03:44:38.378Z,3.39
2023-12-18T03:47:40.117Z,3.31
2023-12-18T03:50:42.011Z,3.19
2023-12-18T03:53:43.577Z,3.09
2023-12-18T03:56:45.222Z,3.05
2023-12-18T03:59:46.822Z,3.02
2023-12-18T04:02:48.508Z,3.02
2023-12-18T04:05:50.198Z,3.01
2023-12-18T04:08:51.857Z,3.05
2023-12-18T04:11:53.521Z,3.08
2023-12-18T04:14:55.204Z,3.05
2023-12-18T04:17:56.961Z,3.02
2023-12-18T04:20:58.674Z,2.94
2023-12-18T04:24:00.303Z,2.91
2023-12-18T04:27:01.920Z,2.96
2023-12-18T04:30:03.788Z,3.04
2023-12-18T04:33:05.804Z,3.07
2023-12-18T04:36:07.853Z,3.06
2023-12-18T04:39:11.309Z,3.05
2023-12-18T04:42:13.104Z,3.04
2023-12-18T04:45:14.770Z,3.06
2023-12-18T04:48:16.531Z,3.10
2023-12-18T04:51:18.984Z,3.10
2023-12-18T04:54:20.690Z,3.07
2023-12-18T04:57:22.437Z,3.01
2023-12-18T05:00:24.259Z,2.93
2023-12-18T05:03:25.997Z,2.87
2023-12-18T05:06:29.155Z,2.82
2023-12-18T05:09:31.248Z,2.74
2023-12-18T05:12:32.950Z,2.60
2023-12-18T05:15:34.684Z,2.47
2023-12-18T05:18:36.579Z,2.38
2023-12-18T05:21:38.430Z,2.30
2023-12-18T05:24:40.585Z,2.26
2023-12-18T05:27:42.472Z,2.27
2023-12-18T05:30:44.322Z,2.30
2023-12-18T05:33:46.305Z,2.32
2023-12-18T05:36:48.213Z,2.34
2023-12-18T05:39:50.056Z,2.34
2023-12-18T05:42:51.858Z,2.34
2023-12-18T05:45:53.554Z,2.32
2023-12-18T05:48:55.419Z,2.26
2023-12-18T05:51:57.050Z,2.21
2023-12-18T05:54:58.737Z,2.19
2023-12-18T05:58:00.285Z,2.21
2023-12-18T06:01:03.067Z,2.21
2023-12-18T06:04:04.996Z,2.23
2023-12-18T06:07:06.670Z,2.23
2023-12-18T06:10:09.274Z,2.22
2023-12-18T06:13:11.045Z,2.20
2023-12-18T06:16:12.690Z,2.19
2023-12-18T06:19:14.419Z,2.17
2023-12-18T06:22:16.021Z,2.25
2023-12-18T06:25:17.957Z,2.34
2023-12-18T06:28:19.500Z,2.39
2023-12-18T06:31:21.291Z,2.39
2023-12-18T06:34:26.164Z,2.56
2023-12-18T06:37:30.113Z,2.70
2023-12-18T06:40:33.002Z,2.79
2023-12-18T06:43:34.565Z,2.96
2023-12-18T06:46:36.224Z,3.19
2023-12-18T06:49:37.930Z,3.31
2023-12-18T06:52:39.812Z,3.39
2023-12-18T06:55:41.723Z,3.48
2023-12-18T06:58:43.425Z,3.60
2023-12-18T07:01:45.083Z,3.75
2023-12-18T07:04:46.918Z,3.83
2023-12-18T07:07:48.794Z,3.96
2023-12-18T07:10:50.344Z,3.99
2023-12-18T07:13:52.067Z,4.05
2023-12-18T07:16:53.788Z,4.04
2023-12-18T07:19:55.389Z,3.88
2023-12-18T07:22:57.001Z,3.80
2023-12-18T07:25:58.664Z,4.02
2023-12-18T07:29:00.181Z,4.21
2023-12-18T07:32:02.123Z,4.34
2023-12-18T07:35:04.604Z,4.45
2023-12-18T07:38:06.302Z,4.43
2023-12-18T07:41:08.018Z,4.32
2023-12-18T07:44:09.686Z,4.20
2023-12-18T07:47:11.339Z,4.16
2023-12-18T07:50:12.996Z,4.13
2023-12-18T07:53:14.605Z,4.20
2023-12-18T07:56:16.553Z,4.31
2023-12-18T07:59:18.213Z,4.46
2023-12-18T08:02:19.765Z,4.63
2023-12-18T08:05:21.482Z,4.70
2023-12-18T08:08:23.184Z,4.79
2023-12-18T08:11:24.756Z,4.88
2023-12-18T08:14:26.381Z,5.00
2023-12-18T08:17:28.231Z,5.13
2023-12-18T08:20:30.113Z,5.25
2023-12-18T08:23:31.747Z,5.38
2023-12-18T08:26:33.329Z,5.51
2023-12-18T08:29:34.885Z,5.67
2023-12-18T08:32:36.914Z,5.87
2023-12-18T08:35:38.644Z,6.16
2023-12-18T08:38:40.246Z,6.61
2023-12-18T08:41:42.009Z,7.21
2023-12-18T08:44:43.900Z,7.76
2023-12-18T08:47:45.734Z,8.09
2023-12-18T08:50:47.565Z,8.25
2023-12-18T08:53:49.361Z,8.54
2023-12-18T08:56:51.119Z,8.88
2023-12-18T08:59:53.124Z,9.35
2023-12-18T09:02:54.845Z,9.75
2023-12-18T09:05:56.553Z,10.09
2023-12-18T09:08:58.432Z,10.35
2023-12-18T09:12:00.166Z,10.53
2023-12-18T09:15:01.811Z,10.79
2023-12-18T09:18:03.957Z,11.19
2023-12-18T09:21:05.636Z,11.41
2023-12-18T09:24:07.524Z,11.48
2023-12-18T09:27:09.192Z,11.50
2023-12-18T09:30:11.939Z,11.53
2023-12-18T09:33:13.875Z,11.65
2023-12-18T09:36:16.262Z,11.77
2023-12-18T09:39:18.173Z,11.93
2023-12-18T09:42:21.487Z,12.09
2023-12-18T09:45:24.519Z,12.05
2023-12-18T09:48:26.453Z,12.18
2023-12-18T09:51:28.378Z,12.53
2023-12-18T09:54:30.445Z,12.66
2023-12-18T09:57:32.298Z,12.68
2023-12-18T10:00:34.448Z,12.67
2023-12-18T10:03:36.354Z,12.90
2023-12-18T10:06:38.125Z,13.03
2023-12-18T10:09:40.330Z,13.27
2023-12-18T10:12:42.752Z,13.31
2023-12-18T10:15:44.736Z,13.09
2023-12-18T10:18:46.526Z,13.13
2023-12-18T10:21:49.477Z,13.18
2023-12-18T10:24:51.177Z,13.38
2023-12-18T10:27:56.155Z,13.59
2023-12-18T10:30:58.154Z,13.77
2023-12-18T10:34:00.071Z,13.91
2023-12-18T10:37:01.961Z,13.89
2023-12-18T10:40:04.208Z,13.99
2023-12-18T10:43:25.044Z,14.00
2023-12-18T10:46:27.690Z,14.17
2023-12-18T10:49:29.521Z,14.14
2023-12-18T10:52:32.189Z,14.23
2023-12-18T10:55:34.181Z,14.14
2023-12-18T10:58:36.015Z,14.04
2023-12-18T11:01:38.060Z,13.96
2023-12-18T11:04:39.766Z,13.72
2023-12-18T11:07:42.169Z,13.80
2023-12-18T11:10:44.101Z,13.84
2023-12-18T11:13:46.459Z,13.83
2023-12-18T11:17:08.422Z,13.94
2023-12-18T11:20:24.315Z,13.72
2023-12-18T11:23:27.013Z,12.91
2023-12-18T11:26:30.104Z,12.76
2023-12-18T11:29:42.622Z,13.05
2023-12-18T11:32:47.777Z,12.68
2023-12-18T11:35:50.265Z,12.14
2023-12-18T11:38:52.016Z,11.78
2023-12-18T11:41:53.769Z,11.46
2023-12-18T11:44:55.482Z,11.26
2023-12-18T11:47:58.750Z,11.44
2023-12-18T11:51:01.632Z,11.47
2023-12-18T11:54:03.627Z,11.20
2023-12-18T11:57:15.400Z,11.02
2023-12-18T12:00:17.759Z,10.97
2023-12-18T12:03:20.293Z,10.98
2023-12-18T12:06:25.406Z,10.96
2023-12-18T12:09:27.362Z,10.95
2023-12-18T12:12:29.142Z,10.95
2023-12-18T12:15:30.930Z,11.00
2023-12-18T12:18:35.834Z,10.98
2023-12-18T12:21:45.297Z,11.01
2023-12-18T12:24:49.475Z,11.00
2023-12-18T12:27:51.884Z,10.96
2023-12-18T12:30:54.145Z,10.91
2023-12-18T12:33:56.293Z,10.84
2023-12-18T12:37:02.058Z,10.78
2023-12-18T12:40:05.519Z,10.72
2023-12-18T12:43:07.691Z,10.70
2023-12-18T12:46:09.599Z,10.68
2023-12-18T12:49:12.276Z,10.71
2023-12-18T12:52:14.973Z,10.69
2023-12-18T12:55:16.771Z,10.67
2023-12-18T12:58:18.465Z,10.64
2023-12-18T13:01:20.232Z,10.63
2023-12-18T13:04:23.174Z,10.59
2023-12-18T13:07:25.090Z,10.56
2023-12-18T13:10:27.261Z,10.53
2023-12-18T13:13:29.508Z,10.53
2023-12-18T13:16:31.180Z,10.51
2023-12-18T13:19:34.644Z,10.48
2023-12-18T13:22:36.426Z,10.46
2023-12-18T13:25:38.099Z,10.42
2023-12-18T13:28:40.560Z,10.41
2023-12-18T13:31:42.355Z,10.36
2023-12-18T13:34:44.153Z,10.33
2023-12-18T13:37:46.127Z,10.28
2023-12-18T13:40:47.927Z,10.24
2023-12-18T13:43:49.638Z,10.21
2023-12-18T13:46:51.667Z,10.23
2023-12-18T13:49:53.690Z,10.16
2023-12-18T13:52:55.469Z,10.06
2023-12-18T13:55:57.121Z,9.97
2023-12-18T13:59:00.917Z,9.90
2023-12-18T14:02:03.504Z,9.84
2023-12-18T14:05:16.932Z,9.77
2023-12-18T14:08:18.699Z,9.73
2023-12-18T14:11:20.460Z,9.69
2023-12-18T14:14:22.173Z,9.64
2023-12-18T14:17:23.888Z,9.60
2023-12-18T14:20:25.634Z,9.55
2023-12-18T14:23:27.247Z,9.49
2023-12-18T14:26:28.954Z,9.40
2023-12-18T14:29:30.522Z,9.33
2023-12-18T14:32:32.311Z,9.24
2023-12-18T14:35:34.432Z,9.15
2023-12-18T14:38:36.126Z,9.01
2023-12-18T14:41:37.886Z,8.91
2023-12-18T14:44:40.461Z,8.82
2023-12-18T14:47:42.444Z,8.68
2023-12-18T14:50:44.098Z,8.56
2023-12-18T14:53:45.831Z,8.51
2023-12-18T14:56:47.491Z,8.54
2023-12-18T14:59:49.248Z,8.53
2023-12-18T15:02:50.890Z,8.53
2023-12-18T15:05:53.021Z,8.51
2023-12-18T15:08:54.767Z,8.52
2023-12-18T15:11:56.728Z,8.48
2023-12-18T15:14:58.461Z,8.35
2023-12-18T15:18:00.190Z,8.27
2023-12-18T15:21:03.720Z,8.22
2023-12-18T15:24:09.647Z,8.16
2023-12-18T15:27:12.578Z,8.12
2023-12-18T15:30:15.150Z,8.09
2023-12-18T15:33:18.095Z,8.10
2023-12-18T15:36:20.373Z,8.15
2023-12-18T15:39:24.205Z,8.16
2023-12-18T15:42:26.140Z,8.14
2023-12-18T15:45:27.832Z,8.15
2023-12-18T15:48:29.619Z,8.15
2023-12-18T15:51:31.387Z,8.13
2023-12-18T15:54:33.074Z,8.12
2023-12-18T15:57:36.183Z,8.13
2023-12-18T16:00:38.132Z,8.10
2023-12-18T16:03:40.409Z,8.04
2023-12-18T16:06:42.237Z,7.99
2023-12-18T16:09:43.962Z,7.97
2023-12-18T16:12:46.089Z,7.97
2023-12-18T16:15:47.987Z,7.97
2023-12-18T16:18:50.025Z,7.96
2023-12-18T16:21:51.850Z,7.95
2023-12-18T16:24:53.931Z,7.95
2023-12-18T16:27:55.691Z,7.91
2023-12-18T16:30:58.242Z,7.87
2023-12-18T16:34:00.128Z,7.84
2023-12-18T16:37:03.472Z,7.78
2023-12-18T16:40:05.840Z,7.65
2023-12-18T16:43:07.567Z,7.60
2023-12-18T16:46:09.363Z,7.58
2023-12-18T16:49:11.152Z,7.58
2023-12-18T16:52:13.038Z,7.56
2023-12-18T16:55:14.813Z,7.57
2023-12-18T16:58:16.471Z,7.52
2023-12-18T17:01:18.403Z,7.47
2023-12-18T17:04:20.132Z,7.41
2023-12-18T17:07:22.326Z,7.40
2023-12-18T17:10:24.222Z,7.42
2023-12-18T17:13:26.206Z,7.42
2023-12-18T17:16:27.900Z,7.42
2023-12-18T17:19:29.685Z,7.33
2023-12-18T17:22:31.336Z,7.20
2023-12-18T17:25:33.123Z,7.11
2023-12-18T17:28:34.708Z,7.06
2023-12-18T17:31:36.837Z,7.00
2023-12-18T17:34:38.603Z,6.98
2023-12-18T17:37:40.398Z,7.00
2023-12-18T17:40:41.956Z,7.01
2023-12-18T17:43:43.585Z,7.05
2023-12-18T17:46:45.348Z,7.08
2023-12-18T17:49:47.268Z,7.12
2023-12-18T17:52:49.941Z,7.15
2023-12-18T17:55:51.558Z,7.17
2023-12-18T17:58:53.426Z,7.16
2023-12-18T18:01:55.031Z,7.19
2023-12-18T18:04:56.634Z,7.19
2023-12-18T18:07:58.204Z,7.18
2023-12-18T18:11:06.535Z,7.18
2023-12-18T18:14:08.095Z,7.17
2023-12-18T18:17:09.700Z,7.17
2023-12-18T18:20:11.767Z,7.14
2023-12-18T18:23:13.465Z,7.09
2023-12-18T18:26:15.079Z,7.08
2023-12-18T18:29:16.756Z,7.05
2023-12-18T18:32:18.462Z,7.04
2023-12-18T18:35:20.234Z,7.04
2023-12-18T18:38:24.809Z,7.03
2023-12-18T18:41:26.397Z,7.02
2023-12-18T18:44:28.134Z,6.97
2023-12-18T18:47:29.820Z,6.97
2023-12-18T18:50:31.426Z,6.93
2023-12-18T18:53:33.159Z,6.87
2023-12-18T18:56:34.756Z,6.84
2023-12-18T18:59:36.338Z,6.83
2023-12-18T19:02:37.896Z,6.81
2023-12-18T19:05:39.608Z,6.78
2023-12-18T19:08:41.636Z,6.78
2023-12-18T19:11:43.306Z,6.78
2023-12-18T19:14:44.932Z,6.79
2023-12-18T19:17:47.008Z,6.75
2023-12-18T19:20:50.458Z,6.73
2023-12-18T19:23:52.471Z,6.69
2023-12-18T19:26:54.099Z,6.69
2023-12-18T19:29:55.716Z,6.66
2023-12-18T19:32:57.516Z,6.61
2023-12-18T19:35:59.148Z,6.57
2023-12-18T19:39:00.684Z,6.52
2023-12-18T19:42:02.323Z,6.47
2023-12-18T19:45:03.973Z,6.42
2023-12-18T19:48:05.847Z,6.39
2023-12-18T19:51:07.472Z,6.36
2023-12-18T19:54:09.347Z,6.32
2023-12-18T19:57:10.921Z,6.29
2023-12-18T20:00:12.841Z,6.27
2023-12-18T20:03:14.728Z,6.23
2023-12-18T20:06:16.725Z,6.19
2023-12-18T20:09:19.005Z,6.16
2023-12-18T20:12:20.791Z,6.18
2023-12-18T20:15:22.514Z,6.21
2023-12-18T20:18:24.373Z,6.16
2023-12-18T20:21:26.149Z,6.14
2023-12-18T20:24:28.220Z,6.16
2023-12-18T20:27:29.894Z,6.17
2023-12-18T20:30:31.604Z,6.11
2023-12-18T20:33:36.291Z,6.09
2023-12-18T20:36:38.034Z,6.09
2023-12-18T20:39:39.958Z,6.07
2023-12-18T20:42:41.933Z,6.05
2023-12-18T20:45:43.744Z,6.05
2023-12-18T20:48:45.530Z,6.06
2023-12-18T20:51:47.263Z,6.15
2023-12-18T20:54:49.428Z,6.19
2023-12-18T20:57:51.110Z,6.17
2023-12-18T21:00:52.906Z,6.12
2023-12-18T21:03:54.652Z,6.05
2023-12-18T21:06:56.774Z,6.00
2023-12-18T21:09:59.685Z,5.93
2023-12-18T21:13:02.205Z,5.88
2023-12-18T21:16:04.169Z,5.97
2023-12-18T21:19:05.925Z,6.10
2023-12-18T21:22:07.670Z,6.15
2023-12-18T21:25:10.984Z,6.18
2023-12-18T21:28:12.604Z,6.20
2023-12-18T21:31:15.048Z,6.13
2023-12-18T21:34:16.817Z,6.09
2023-12-18T21:37:18.528Z,6.11
2023-12-18T21:40:21.031Z,6.15
2023-12-18T21:43:23.393Z,6.17
2023-12-18T21:46:25.776Z,6.19
2023-12-18T21:49:27.772Z,6.18
2023-12-18T21:52:29.674Z,6.14
2023-12-18T21:55:33.043Z,6.09
2023-12-18T21:58:34.690Z,6.06
2023-12-18T22:01:38.696Z,5.96
2023-12-18T22:04:40.858Z,5.91
2023-12-18T22:07:42.633Z,5.87
2023-12-18T22:10:44.413Z,5.83
2023-12-18T22:13:46.110Z,5.76
2023-12-18T22:16:48.132Z,5.64
2023-12-18T22:19:49.957Z,5.53
2023-12-18T22:22:51.719Z,5.40
2023-12-18T22:25:53.704Z,5.32
2023-12-18T22:28:55.249Z,5.20
2023-12-18T22:31:56.882Z,5.09
2023-12-18T22:34:58.788Z,5.02
2023-12-18T22:38:00.482Z,4.96
2023-12-18T22:41:02.413Z,4.91
2023-12-18T22:44:04.026Z,4.83
2023-12-18T22:47:05.761Z,4.76
2023-12-18T22:50:07.656Z,4.70
2023-12-18T22:53:09.321Z,4.59
2023-12-18T22:56:11.169Z,4.49
2023-12-18T22:59:12.822Z,4.38
2023-12-18T23:02:14.458Z,4.21
2023-12-18T23:05:16.367Z,4.05
2023-12-18T23:08:17.909Z,3.98
2023-12-18T23:11:21.300Z,3.91
2023-12-18T23:14:22.885Z,3.82
2023-12-18T23:17:24.529Z,3.77
2023-12-18T23:20:26.118Z,3.70
2023-12-18T23:23:27.762Z,3.61
2023-12-18T23:26:29.960Z,3.46
2023-12-18T23:29:31.540Z,3.35
2023-12-18T23:32:33.573Z,3.26
2023-12-18T23:35:35.223Z,3.12
2023-12-18T23:38:37.094Z,2.96
2023-12-18T23:41:38.967Z,2.82
2023-12-18T23:44:40.558Z,2.68
2023-12-18T23:47:42.142Z,2.57
2023-12-18T23:50:46.952Z,2.46
2023-12-18T23:53:48.623Z,2.34
2023-12-18T23:56:50.566Z,2.20
2023-12-18T23:59:52.569Z,2.08
